Terminal Aerodrome Forecast
Issued by NWS

Home | Current Version | Previous Version | Text Only | Print | Product List | Glossary On
Versions: 1 2 3 4 5 6 7 8 9 10 11 12 13 14
000
FTUS45 KTFX 211131
TAFHVR
TAF
KHVR 211131Z 2112/2212 27015KT P6SM BKN090
     FM211500 25015G24KT P6SM SCT200
     FM220300 23007KT P6SM FEW120 FEW250 PROB30 2206/2208 4SM -SHRA
      OVC040
     FM220800 22012G23KT P6SM SCT090 BKN100 PROB30 2208/2212 4SM
      -SHRA OVC040=

USA.gov is the U.S. government's official web portal to all federal, state and local government web resources and services.